createdAt,value
2022-09-03T00:01:14.979Z,99191.20
2022-09-03T00:03:59.168Z,99190.00
2022-09-03T00:06:44.232Z,99188.80
2022-09-03T00:09:30.872Z,99186.20
2022-09-03T00:12:15.621Z,99180.00
2022-09-03T00:15:01.948Z,99174.60
2022-09-03T00:17:43.412Z,99176.00
2022-09-03T00:20:28.375Z,99170.40
2022-09-03T00:23:13.700Z,99168.80
2022-09-03T00:26:00.043Z,99169.00
2022-09-03T00:28:44.268Z,99169.80
2022-09-03T00:31:30.496Z,99169.40
2022-09-03T00:34:16.522Z,99167.20
2022-09-03T00:36:52.921Z,99170.20
2022-09-03T00:39:31.173Z,99169.80
2022-09-03T00:42:33.895Z,99168.80
2022-09-03T00:45:34.005Z,99163.60
2022-09-03T00:48:27.975Z,99165.80
2022-09-03T00:51:29.517Z,99162.60
2022-09-03T00:54:20.577Z,99158.40
2022-09-03T00:57:37.407Z,99158.20
2022-09-03T01:00:19.068Z,99158.00
2022-09-03T01:03:09.538Z,99160.00
2022-09-03T01:06:20.339Z,99155.20
2022-09-03T01:09:37.392Z,99152.60
2022-09-03T01:12:33.099Z,99153.40
2022-09-03T01:15:22.582Z,99156.00
2022-09-03T01:18:19.162Z,99151.20
2022-09-03T01:21:28.685Z,99156.80
2022-09-03T01:24:46.877Z,99153.80
2022-09-03T01:27:47.022Z,99162.80
2022-09-03T01:30:25.569Z,99161.00
2022-09-03T01:33:19.024Z,99161.60
2022-09-03T01:36:10.790Z,99159.60
2022-09-03T01:38:56.917Z,99160.40
2022-09-03T01:42:10.855Z,99156.80
2022-09-03T01:45:12.876Z,99163.60
2022-09-03T01:48:12.018Z,99161.60
2022-09-03T01:51:00.335Z,99162.60
2022-09-03T01:54:26.382Z,99159.60
2022-09-03T01:57:49.020Z,99157.40
2022-09-03T02:00:28.143Z,99159.40
2022-09-03T02:03:10.658Z,99156.00
2022-09-03T02:05:48.064Z,99156.60
2022-09-03T02:08:25.369Z,99151.00
2022-09-03T02:11:05.377Z,99152.00
2022-09-03T02:13:49.064Z,99154.60
2022-09-03T02:16:34.683Z,99154.80
2022-09-03T02:19:17.968Z,99163.40
2022-09-03T02:21:57.574Z,99162.00
2022-09-03T02:24:34.107Z,99162.20
2022-09-03T02:27:10.585Z,99166.00
2022-09-03T02:29:47.077Z,99162.80
2022-09-03T02:32:23.192Z,99161.60
2022-09-03T02:35:01.351Z,99157.60
2022-09-03T02:37:37.540Z,99160.40
2022-09-03T02:40:15.266Z,99162.00
2022-09-03T02:42:53.437Z,99162.80
2022-09-03T02:45:33.077Z,99156.00
2022-09-03T02:48:11.501Z,99156.40
2022-09-03T02:50:48.799Z,99156.80
2022-09-03T02:53:25.231Z,99155.60
2022-09-03T02:56:06.841Z,99159.80
2022-09-03T02:58:42.748Z,99155.80
2022-09-03T03:01:23.991Z,99161.60
2022-09-03T03:04:00.573Z,99166.40
2022-09-03T03:06:36.781Z,99169.20
2022-09-03T03:09:12.760Z,99173.00
2022-09-03T03:11:50.135Z,99165.20
2022-09-03T03:14:26.575Z,99163.00
2022-09-03T03:17:02.755Z,99158.80
2022-09-03T03:19:38.746Z,99164.60
2022-09-03T03:22:15.172Z,99171.20
2022-09-03T03:24:52.906Z,99172.80
2022-09-03T03:27:28.921Z,99169.60
2022-09-03T03:30:05.304Z,99167.20
2022-09-03T03:32:42.173Z,99169.60
2022-09-03T03:35:18.247Z,99174.60
2022-09-03T03:37:54.834Z,99174.20
2022-09-03T03:40:31.452Z,99169.60
2022-09-03T03:43:07.629Z,99172.00
2022-09-03T03:45:43.722Z,99170.00
2022-09-03T03:48:19.835Z,99172.40
2022-09-03T03:50:56.037Z,99169.60
2022-09-03T03:53:32.006Z,99167.80
2022-09-03T03:56:13.039Z,99163.20
2022-09-03T03:58:49.103Z,99164.60
2022-09-03T04:01:28.782Z,99168.40
2022-09-03T04:04:05.839Z,99169.80
2022-09-03T04:06:41.805Z,99175.20
2022-09-03T04:09:17.783Z,99172.40
2022-09-03T04:11:53.724Z,99174.00
2022-09-03T04:14:30.175Z,99175.40
2022-09-03T04:17:06.397Z,99178.40
2022-09-03T04:19:42.299Z,99179.60
2022-09-03T04:22:19.257Z,99180.20
2022-09-03T04:24:55.484Z,99178.60
2022-09-03T04:27:31.386Z,99176.20
2022-09-03T04:30:09.310Z,99174.00
2022-09-03T04:32:54.670Z,99170.60
2022-09-03T04:35:31.983Z,99167.40
2022-09-03T04:38:08.008Z,99165.80
2022-09-03T04:40:44.400Z,99169.60
2022-09-03T04:43:20.274Z,99168.00
2022-09-03T04:45:59.819Z,99168.00
2022-09-03T04:48:40.434Z,99177.00
2022-09-03T04:51:20.183Z,99177.60
2022-09-03T04:54:02.344Z,99177.40
2022-09-03T04:56:41.703Z,99177.20
2022-09-03T04:59:17.623Z,99186.60
2022-09-03T05:01:53.833Z,99186.60
2022-09-03T05:04:29.775Z,99192.00
2022-09-03T05:07:05.894Z,99194.00
2022-09-03T05:09:41.851Z,99197.00
2022-09-03T05:12:17.992Z,99196.60
2022-09-03T05:14:53.908Z,99202.60
2022-09-03T05:17:30.215Z,99206.60
2022-09-03T05:20:07.662Z,99206.60
2022-09-03T05:22:43.884Z,99208.60
2022-09-03T05:25:20.247Z,99213.00
2022-09-03T05:27:56.360Z,99210.00
2022-09-03T05:30:32.351Z,99219.20
2022-09-03T05:33:08.458Z,99226.40
2022-09-03T05:35:44.363Z,99226.60
2022-09-03T05:38:20.336Z,99225.60
2022-09-03T05:40:59.245Z,99229.00
2022-09-03T05:43:36.741Z,99225.80
2022-09-03T05:46:17.429Z,99228.20
2022-09-03T05:48:53.804Z,99228.80
2022-09-03T05:51:30.332Z,99223.00
2022-09-03T05:54:08.801Z,99218.20
2022-09-03T05:56:45.314Z,99215.80
2022-09-03T05:59:21.729Z,99214.40
2022-09-03T06:02:00.346Z,99207.60
2022-09-03T06:04:36.566Z,99207.00
2022-09-03T06:07:13.098Z,99204.80
2022-09-03T06:09:49.190Z,99198.60
2022-09-03T06:12:25.224Z,99195.00
2022-09-03T06:15:01.285Z,99196.80
2022-09-03T06:17:38.931Z,99201.20
2022-09-03T06:20:16.595Z,99200.40
2022-09-03T06:22:55.678Z,99202.00
2022-09-03T06:25:32.000Z,99202.60
2022-09-03T06:28:09.049Z,99206.00
2022-09-03T06:30:45.034Z,99209.80
2022-09-03T06:33:21.378Z,99220.80
2022-09-03T06:36:03.700Z,99219.40
2022-09-03T06:38:42.349Z,99223.20
2022-09-03T06:41:25.265Z,99225.80
2022-09-03T06:44:06.477Z,99231.80
2022-09-03T06:46:44.021Z,99230.20
2022-09-03T06:49:20.428Z,99231.60
2022-09-03T06:51:56.656Z,99229.60
2022-09-03T06:54:32.569Z,99223.40
2022-09-03T06:57:09.229Z,99230.40
2022-09-03T06:59:45.216Z,99232.80
2022-09-03T07:02:23.069Z,99240.20
2022-09-03T07:04:59.245Z,99235.60
2022-09-03T07:07:35.340Z,99231.60
2022-09-03T07:10:16.286Z,99235.80
2022-09-03T07:12:52.188Z,99223.60
2022-09-03T07:15:28.569Z,99229.60
2022-09-03T07:18:04.577Z,99235.40
2022-09-03T07:20:40.864Z,99235.60
2022-09-03T07:23:16.823Z,99239.80
2022-09-03T07:26:02.933Z,99248.40
2022-09-03T07:28:43.834Z,99253.40
2022-09-03T07:31:26.107Z,99250.80
2022-09-03T07:34:06.213Z,99254.60
2022-09-03T07:36:51.294Z,99258.20
2022-09-03T07:39:27.895Z,99258.60
2022-09-03T07:42:03.909Z,99252.40
2022-09-03T07:44:40.075Z,99258.60
2022-09-03T07:47:19.937Z,99257.60
2022-09-03T07:50:03.972Z,99258.20
2022-09-03T07:52:39.908Z,99251.60
2022-09-03T07:55:16.841Z,99250.20
2022-09-03T07:57:56.575Z,99256.00
2022-09-03T08:00:34.163Z,99264.80
2022-09-03T08:03:10.883Z,99263.40
2022-09-03T08:05:46.841Z,99263.60
2022-09-03T08:08:23.895Z,99264.60
2022-09-03T08:11:09.393Z,99267.20
2022-09-03T08:13:48.780Z,99265.80
2022-09-03T08:16:24.812Z,99262.80
2022-09-03T08:19:01.533Z,99266.40
2022-09-03T08:21:37.752Z,99266.80
2022-09-03T08:24:16.720Z,99271.20
2022-09-03T08:26:53.035Z,99265.20
2022-09-03T08:29:29.429Z,99262.00
2022-09-03T08:32:06.878Z,99261.60
2022-09-03T08:34:42.849Z,99269.40
2022-09-03T08:37:18.750Z,99266.40
2022-09-03T08:39:54.766Z,99262.40
2022-09-03T08:42:50.572Z,99265.80
2022-09-03T08:45:30.376Z,99268.20
2022-09-03T08:48:16.512Z,99268.00
2022-09-03T08:51:00.142Z,99261.20
2022-09-03T08:53:46.499Z,99259.20
2022-09-03T08:56:31.539Z,99255.40
2022-09-03T08:59:09.038Z,99255.40
2022-09-03T09:01:58.761Z,99264.80
2022-09-03T09:04:58.655Z,99269.00
2022-09-03T09:07:48.642Z,99268.80
2022-09-03T09:10:35.533Z,99261.40
2022-09-03T09:13:26.566Z,99257.00
2022-09-03T09:16:20.017Z,99265.00
2022-09-03T09:19:23.957Z,99270.00
2022-09-03T09:22:09.008Z,99277.20
2022-09-03T09:24:49.777Z,99283.20
2022-09-03T09:27:27.163Z,99285.00
2022-09-03T09:30:07.657Z,99283.20
2022-09-03T09:32:45.164Z,99276.20
2022-09-03T09:35:22.628Z,99281.60
2022-09-03T09:38:01.342Z,99281.40
2022-09-03T09:40:44.728Z,99287.00
2022-09-03T09:43:22.956Z,99281.00
2022-09-03T09:46:13.191Z,99281.40
2022-09-03T09:48:58.007Z,99280.80
2022-09-03T09:51:35.221Z,99281.20
2022-09-03T09:54:28.001Z,99279.40
2022-09-03T09:57:10.106Z,99282.60
2022-09-03T09:59:46.344Z,99284.40
2022-09-03T10:02:32.396Z,99282.80
2022-09-03T10:05:25.074Z,99285.40
2022-09-03T10:08:08.100Z,99288.80
2022-09-03T10:10:51.487Z,99285.00
2022-09-03T10:13:37.384Z,99285.80
2022-09-03T10:16:28.986Z,99285.40
2022-09-03T10:19:17.211Z,99283.60
2022-09-03T10:22:03.766Z,99281.60
2022-09-03T10:24:56.208Z,99274.80
2022-09-03T10:27:32.527Z,99272.40
2022-09-03T10:30:17.041Z,99267.00
2022-09-03T10:33:09.887Z,99266.60
2022-09-03T10:35:54.331Z,99266.60
2022-09-03T10:38:36.900Z,99255.40
2022-09-03T10:41:34.481Z,99259.80
2022-09-03T10:44:50.278Z,99262.60
2022-09-03T10:47:58.833Z,99273.80
2022-09-03T10:50:49.713Z,99276.80
2022-09-03T10:53:56.507Z,99275.40
2022-09-03T10:56:49.287Z,99283.00
2022-09-03T11:00:01.961Z,99282.00
2022-09-03T11:03:46.930Z,99278.60
2022-09-03T11:06:28.895Z,99273.20
2022-09-03T11:09:25.212Z,99275.00
2022-09-03T11:12:07.760Z,99272.00
2022-09-03T11:14:53.989Z,99276.40
2022-09-03T11:17:38.701Z,99276.80
2022-09-03T11:20:25.168Z,99276.00
2022-09-03T11:23:05.786Z,99274.20
2022-09-03T11:25:52.520Z,99274.20
2022-09-03T11:28:46.523Z,99276.60
2022-09-03T11:31:39.834Z,99276.00
2022-09-03T11:34:33.062Z,99273.60
2022-09-03T11:37:24.762Z,99270.20
2022-09-03T11:40:11.890Z,99267.40
2022-09-03T11:42:49.520Z,99258.20
2022-09-03T11:45:40.872Z,99259.40
2022-09-03T11:48:41.306Z,99252.20
2022-09-03T11:51:38.405Z,99252.00
2022-09-03T11:54:33.456Z,99251.80
2022-09-03T11:57:28.670Z,99252.80
2022-09-03T12:00:22.681Z,99242.20
2022-09-03T12:03:06.629Z,99238.20
2022-09-03T12:06:00.721Z,99239.20
2022-09-03T12:09:13.860Z,99240.00
2022-09-03T12:12:10.920Z,99241.60
2022-09-03T12:15:03.180Z,99242.20
2022-09-03T12:18:13.433Z,99236.60
2022-09-03T12:21:01.782Z,99240.60
2022-09-03T12:23:45.660Z,99234.00
2022-09-03T12:26:40.050Z,99230.80
2022-09-03T12:29:31.112Z,99238.20
2022-09-03T12:32:18.696Z,99234.40
2022-09-03T12:34:54.836Z,99234.00
2022-09-03T12:41:19.272Z,99235.00
2022-09-03T12:43:38.246Z,99229.40
2022-09-03T12:46:33.643Z,99223.20
2022-09-03T12:49:31.708Z,99218.60
2022-09-03T12:52:19.253Z,99220.00
2022-09-03T12:55:05.968Z,99217.80
2022-09-03T12:57:49.410Z,99219.20
2022-09-03T13:00:25.818Z,99215.40
2022-09-03T13:03:08.562Z,99215.60
2022-09-03T13:05:52.579Z,99211.60
2022-09-03T13:08:35.073Z,99215.00
2022-09-03T13:11:11.819Z,99207.00
2022-09-03T13:14:05.630Z,99208.00
2022-09-03T13:17:29.395Z,99197.20
2022-09-03T13:20:35.987Z,99200.00
2022-09-03T13:24:01.779Z,99199.40
2022-09-03T13:26:58.257Z,99206.40
2022-09-03T13:30:02.981Z,99205.00
2022-09-03T13:32:58.037Z,99202.80
2022-09-03T13:35:46.073Z,99199.60
2022-09-03T13:38:37.551Z,99202.20
2022-09-03T13:41:19.802Z,99204.40
2022-09-03T13:44:08.508Z,99201.40
2022-09-03T13:46:56.107Z,99204.40
2022-09-03T13:50:01.098Z,99203.60
2022-09-03T13:52:46.408Z,99207.40
2022-09-03T13:55:33.575Z,99200.40
2022-09-03T13:58:28.198Z,99203.80
2022-09-03T14:01:24.335Z,99199.20
2022-09-03T14:04:04.118Z,99190.40
2022-09-03T14:06:54.300Z,99191.40
2022-09-03T14:09:44.124Z,99191.20
2022-09-03T14:12:37.915Z,99193.20
2022-09-03T14:15:29.543Z,99199.60
2022-09-03T14:18:25.058Z,99194.40
2022-09-03T14:21:08.536Z,99191.40
2022-09-03T14:23:53.233Z,99193.40
2022-09-03T14:26:41.762Z,99194.40
2022-09-03T14:29:28.367Z,99201.00
2022-09-03T14:32:30.449Z,99197.60
2022-09-03T14:35:37.692Z,99199.20
2022-09-03T14:38:58.944Z,99194.40
2022-09-03T14:42:11.925Z,99195.40
2022-09-03T14:45:39.959Z,99189.80
2022-09-03T14:49:10.788Z,99192.20
2022-09-03T14:52:11.303Z,99192.60
2022-09-03T14:55:26.987Z,99188.40
2022-09-03T14:58:35.780Z,99189.20
2022-09-03T15:01:19.433Z,99189.20
2022-09-03T15:04:51.592Z,99192.40
2022-09-03T15:07:42.658Z,99189.80
2022-09-03T15:10:33.339Z,99190.20
2022-09-03T15:13:20.635Z,99197.00
2022-09-03T15:16:24.887Z,99196.60
2022-09-03T15:19:25.761Z,99188.40
2022-09-03T15:22:23.522Z,99186.40
2022-09-03T15:25:16.916Z,99187.80
2022-09-03T15:28:13.818Z,99193.20
2022-09-03T15:31:03.056Z,99188.60
2022-09-03T15:33:52.245Z,99185.40
2022-09-03T15:36:37.275Z,99186.80
2022-09-03T15:39:23.561Z,99182.60
2022-09-03T15:42:07.721Z,99177.40
2022-09-03T15:44:54.193Z,99179.00
2022-09-03T15:47:52.319Z,99179.60
2022-09-03T15:50:53.960Z,99180.00
2022-09-03T15:53:43.279Z,99179.80
2022-09-03T15:56:30.140Z,99183.40
2022-09-03T15:59:17.116Z,99185.20
2022-09-03T16:02:11.078Z,99188.60
2022-09-03T16:05:08.948Z,99178.40
2022-09-03T16:08:14.411Z,99183.00
2022-09-03T16:11:07.619Z,99186.40
2022-09-03T16:14:02.123Z,99192.80
2022-09-03T16:17:02.974Z,99185.40
2022-09-03T16:19:53.072Z,99188.00
2022-09-03T16:22:39.928Z,99183.20
2022-09-03T16:25:24.676Z,99180.80
2022-09-03T16:28:23.219Z,99181.60
2022-09-03T16:31:17.311Z,99179.40
2022-09-03T16:34:17.970Z,99177.60
2022-09-03T16:37:11.163Z,99176.80
2022-09-03T16:40:03.994Z,99181.60
2022-09-03T16:42:54.231Z,99179.00
2022-09-03T16:45:48.102Z,99180.60
2022-09-03T16:48:39.908Z,99184.20
2022-09-03T16:51:29.366Z,99177.20
2022-09-03T16:54:38.187Z,99178.20
2022-09-03T16:57:37.414Z,99178.60
2022-09-03T17:00:21.511Z,99180.60
2022-09-03T17:03:28.272Z,99186.20
2022-09-03T17:07:01.456Z,99183.00
2022-09-03T17:10:03.175Z,99182.80
2022-09-03T17:12:50.187Z,99179.40
2022-09-03T17:15:49.254Z,99181.80
2022-09-03T17:18:51.474Z,99183.20
2022-09-03T17:21:49.382Z,99180.40
2022-09-03T17:24:53.169Z,99184.20
2022-09-03T17:27:50.224Z,99181.00
2022-09-03T17:30:41.221Z,99188.00
2022-09-03T17:34:04.855Z,99189.20
2022-09-03T17:36:52.244Z,99188.20
2022-09-03T17:40:17.396Z,99191.80
2022-09-03T17:43:06.925Z,99190.20
2022-09-03T17:46:07.306Z,99194.00
2022-09-03T17:49:01.604Z,99201.40
2022-09-03T17:51:50.519Z,99205.20
2022-09-03T17:54:44.172Z,99212.00
2022-09-03T17:57:30.969Z,99209.20
2022-09-03T18:00:13.336Z,99210.40
2022-09-03T18:03:01.946Z,99213.60
2022-09-03T18:05:53.704Z,99217.80
2022-09-03T18:08:43.011Z,99218.40
2022-09-03T18:11:29.799Z,99218.00
2022-09-03T18:14:27.493Z,99220.20
2022-09-03T18:17:21.724Z,99219.80
2022-09-03T18:20:24.369Z,99222.20
2022-09-03T18:23:27.491Z,99222.20
2022-09-03T18:26:30.130Z,99224.00
2022-09-03T18:29:35.557Z,99222.00
2022-09-03T18:32:29.757Z,99226.20
2022-09-03T18:35:23.819Z,99226.20
2022-09-03T18:38:18.496Z,99229.00
2022-09-03T18:41:24.736Z,99227.20
2022-09-03T18:44:33.447Z,99222.80
2022-09-03T18:48:02.973Z,99228.60
2022-09-03T18:51:11.603Z,99233.00
2022-09-03T18:54:23.696Z,99232.60
2022-09-03T18:57:27.819Z,99239.00
2022-09-03T19:00:32.322Z,99232.40
2022-09-03T19:03:59.655Z,99233.60
2022-09-03T19:07:06.710Z,99226.60
2022-09-03T19:10:17.660Z,99229.00
2022-09-03T19:13:41.459Z,99228.20
2022-09-03T19:16:46.013Z,99229.60
2022-09-03T19:20:08.645Z,99229.80
2022-09-03T19:23:03.835Z,99228.20
2022-09-03T19:25:58.427Z,99226.40
2022-09-03T19:29:02.452Z,99228.40
2022-09-03T19:32:10.799Z,99227.60
2022-09-03T19:35:36.531Z,99231.80
2022-09-03T19:38:56.124Z,99230.80
2022-09-03T19:42:00.311Z,99233.40
2022-09-03T19:45:18.242Z,99237.40
2022-09-03T19:48:31.911Z,99239.40
2022-09-03T19:51:34.810Z,99241.60
2022-09-03T19:54:30.040Z,99243.20
2022-09-03T19:57:24.660Z,99243.20
2022-09-03T20:00:29.283Z,99246.60
2022-09-03T20:03:29.087Z,99249.00
2022-09-03T20:06:27.476Z,99254.00
2022-09-03T20:09:29.095Z,99255.20
2022-09-03T20:12:10.659Z,99258.60
2022-09-03T20:14:46.749Z,99261.20
2022-09-03T20:17:39.750Z,99265.60
2022-09-03T20:20:29.331Z,99266.00
2022-09-03T20:23:19.257Z,99266.80
2022-09-03T20:26:22.181Z,99276.00
2022-09-03T20:29:40.208Z,99275.00
2022-09-03T20:32:35.931Z,99270.60
2022-09-03T20:35:26.718Z,99269.60
2022-09-03T20:38:22.659Z,99268.20
2022-09-03T20:41:18.536Z,99265.80
2022-09-03T20:44:36.235Z,99269.60
2022-09-03T20:47:46.374Z,99273.00
2022-09-03T20:50:45.783Z,99276.60
2022-09-03T20:54:08.824Z,99278.20
2022-09-03T20:57:19.300Z,99282.80
2022-09-03T21:00:15.322Z,99282.20
2022-09-03T21:03:15.988Z,99281.80
2022-09-03T21:06:08.883Z,99281.00
2022-09-03T21:09:09.332Z,99283.80
2022-09-03T21:12:01.246Z,99284.80
2022-09-03T21:14:48.762Z,99278.00
2022-09-03T21:17:46.461Z,99277.00
2022-09-03T21:20:41.388Z,99273.20
2022-09-03T21:23:26.923Z,99274.80
2022-09-03T21:26:16.312Z,99275.60
2022-09-03T21:29:18.379Z,99276.20
2022-09-03T21:32:06.972Z,99278.20
2022-09-03T21:34:52.062Z,99284.00
2022-09-03T21:37:28.676Z,99289.80
2022-09-03T21:40:07.993Z,99291.20
2022-09-03T21:42:54.281Z,99291.60
2022-09-03T21:45:39.178Z,99288.60
2022-09-03T21:48:24.224Z,99288.80
2022-09-03T21:51:05.933Z,99292.20
2022-09-03T21:53:50.578Z,99289.80
2022-09-03T21:57:14.333Z,99290.40
2022-09-03T22:00:19.689Z,99295.00
2022-09-03T22:02:59.292Z,99292.20
2022-09-03T22:05:51.560Z,99296.60
2022-09-03T22:08:40.233Z,99293.40
2022-09-03T22:11:27.347Z,99289.80
2022-09-03T22:14:11.391Z,99290.40
2022-09-03T22:16:56.403Z,99291.20
2022-09-03T22:19:39.006Z,99291.00
2022-09-03T22:22:26.692Z,99290.80
2022-09-03T22:25:10.317Z,99289.40
2022-09-03T22:28:00.893Z,99291.80
2022-09-03T22:30:51.643Z,99290.40
2022-09-03T22:33:39.523Z,99290.60
2022-09-03T22:36:22.859Z,99287.60
2022-09-03T22:39:27.257Z,99291.00
2022-09-03T22:42:50.491Z,99288.00
2022-09-03T22:45:50.014Z,99288.00
2022-09-03T22:48:45.223Z,99291.40
2022-09-03T22:51:22.113Z,99289.40
2022-09-03T22:54:26.025Z,99287.60
2022-09-03T22:57:03.981Z,99284.60
2022-09-03T22:59:45.600Z,99285.60
2022-09-03T23:02:27.979Z,99286.00
2022-09-03T23:05:16.284Z,99284.60
2022-09-03T23:08:01.188Z,99283.20
2022-09-03T23:10:53.895Z,99284.40
2022-09-03T23:13:42.120Z,99287.00
2022-09-03T23:16:32.646Z,99291.40
2022-09-03T23:22:06.632Z,99281.20
2022-09-03T23:24:49.317Z,99284.80
2022-09-03T23:27:36.328Z,99283.40
2022-09-03T23:30:13.936Z,99282.20
2022-09-03T23:32:54.375Z,99280.40
2022-09-03T23:35:43.323Z,99281.80
2022-09-03T23:38:35.348Z,99276.20
2022-09-03T23:41:25.894Z,99282.00
2022-09-03T23:44:23.863Z,99280.00
2022-09-03T23:47:15.957Z,99284.00
2022-09-03T23:50:02.436Z,99279.20
2022-09-03T23:53:23.189Z,99279.80
2022-09-03T23:56:28.663Z,99285.00
2022-09-03T23:59:21.211Z,99284.80
